Time,TemperatureF,DewpointF,PressureIn,WindDirection,WindDirectionDegrees,WindSpeedMPH,WindSpeedGustMPH,Humidity,HourlyPrecipIn,Conditions,Clouds,dailyrainin,SoftwareType,DateUTC
2013-03-01 00:10:00,34.6,33.0,29.81,SSW,198,1.0,3.0,94,0.00,,,0.07,weatherlink.com 1.10,2013-03-01 05:10:00,
2013-03-01 00:25:00,34.3,33.0,29.81,SSW,198,0.0,2.0,94,0.00,,,0.07,weatherlink.com 1.10,2013-03-01 05:25:00,
2013-03-01 00:40:00,33.8,32.0,29.81,SSW,198,0.0,2.0,94,0.00,,,0.07,weatherlink.com 1.10,2013-03-01 05:40:00,
2013-03-01 00:55:00,33.5,32.0,29.81,South,173,0.0,5.0,95,0.00,,,0.07,weatherlink.com 1.10,2013-03-01 05:55:00,
2013-03-01 01:10:00,33.2,32.0,29.81,SW,216,3.0,4.0,94,0.00,,,0.07,weatherlink.com 1.10,2013-03-01 06:10:00,
2013-03-01 01:25:00,33.1,31.0,29.81,South,178,0.0,5.0,93,0.00,,,0.07,weatherlink.com 1.10,2013-03-01 06:25:00,
2013-03-01 01:40:00,32.8,31.0,29.81,SSW,203,2.0,5.0,92,0.00,,,0.07,weatherlink.com 1.10,2013-03-01 06:40:00,
2013-03-01 01:55:00,32.8,31.0,29.81,South,184,1.0,8.0,92,0.00,,,0.07,weatherlink.com 1.10,2013-03-01 06:55:00,
2013-03-01 02:10:00,32.7,30.0,29.82,SW,214,1.0,6.0,91,0.00,,,0.07,weatherlink.com 1.10,2013-03-01 07:10:00,
2013-03-01 02:25:00,32.6,30.0,29.81,SSW,211,2.0,5.0,91,0.00,,,0.07,weatherlink.com 1.10,2013-03-01 07:25:00,
2013-03-01 02:40:00,32.4,30.0,29.81,SSW,203,2.0,5.0,90,0.00,,,0.07,weatherlink.com 1.10,2013-03-01 07:40:00,
2013-03-01 02:55:00,32.6,30.0,29.81,SSW,198,2.0,6.0,89,0.00,,,0.07,weatherlink.com 1.10,2013-03-01 07:55:00,
2013-03-01 03:11:00,32.6,30.0,29.82,SSW,201,0.0,8.0,89,0.00,,,0.07,weatherlink.com 1.10,2013-03-01 08:11:00,
2013-03-01 03:26:00,32.4,30.0,29.82,SSW,196,2.0,6.0,89,0.00,,,0.07,weatherlink.com 1.10,2013-03-01 08:26:00,
2013-03-01 03:41:00,32.2,29.0,29.83,SSW,209,2.0,6.0,89,0.00,,,0.07,weatherlink.com 1.10,2013-03-01 08:41:00,
2013-03-01 03:56:00,32.1,29.0,29.83,SSW,194,1.0,6.0,89,0.00,,,0.07,weatherlink.com 1.10,2013-03-01 08:56:00,
2013-03-01 04:11:00,32.2,29.0,29.84,SSW,204,2.0,6.0,89,0.00,,,0.07,weatherlink.com 1.10,2013-03-01 09:11:00,
2013-03-01 04:26:00,32.0,29.0,29.84,SSW,200,2.0,8.0,90,0.00,,,0.07,weatherlink.com 1.10,2013-03-01 09:26:00,
2013-03-01 04:41:00,32.0,29.0,29.84,South,183,3.0,6.0,89,0.00,,,0.07,weatherlink.com 1.10,2013-03-01 09:41:00,
2013-03-01 04:56:00,32.2,29.0,29.85,SSW,207,2.0,6.0,89,0.00,,,0.07,weatherlink.com 1.10,2013-03-01 09:56:00,
2013-03-01 05:11:00,32.4,29.0,29.85,South,180,1.0,6.0,88,0.00,,,0.07,weatherlink.com 1.10,2013-03-01 10:11:00,
2013-03-01 05:26:00,32.3,29.0,29.86,SSW,203,2.0,7.0,87,0.00,,,0.07,weatherlink.com 1.10,2013-03-01 10:26:00,
2013-03-01 05:41:00,32.5,29.0,29.86,SW,216,2.0,5.0,86,0.00,,,0.07,weatherlink.com 1.10,2013-03-01 10:41:00,
2013-03-01 05:56:00,32.6,29.0,29.86,ESE,109,3.0,6.0,86,0.00,,,0.07,weatherlink.com 1.10,2013-03-01 10:56:00,
2013-03-01 06:11:00,32.7,29.0,29.86,SW,234,2.0,8.0,86,0.00,,,0.07,weatherlink.com 1.10,2013-03-01 11:11:00,
2013-03-01 06:26:00,32.8,29.0,29.86,SSW,195,1.0,7.0,86,0.00,,,0.07,weatherlink.com 1.10,2013-03-01 11:26:00,
2013-03-01 06:41:00,33.0,29.0,29.86,SSW,207,5.0,7.0,86,0.00,,,0.07,weatherlink.com 1.10,2013-03-01 11:41:00,
2013-03-01 06:56:00,33.1,29.0,29.87,SSW,194,1.0,7.0,86,0.00,,,0.07,weatherlink.com 1.10,2013-03-01 11:56:00,
2013-03-01 07:11:00,33.2,30.0,29.88,SSW,207,3.0,7.0,87,0.00,,,0.07,weatherlink.com 1.10,2013-03-01 12:11:00,
2013-03-01 07:26:00,33.3,30.0,29.88,SSE,155,2.0,7.0,87,0.00,,,0.07,weatherlink.com 1.10,2013-03-01 12:26:00,
2013-03-01 07:41:00,33.4,30.0,29.89,South,184,0.0,6.0,87,0.00,,,0.07,weatherlink.com 1.10,2013-03-01 12:41:00,
2013-03-01 07:56:00,33.5,30.0,29.89,SW,233,0.0,3.0,87,0.00,,,0.07,weatherlink.com 1.10,2013-03-01 12:56:00,
2013-03-01 08:11:00,33.6,30.0,29.89,SW,233,1.0,2.0,88,0.00,,,0.07,weatherlink.com 1.10,2013-03-01 13:11:00,
2013-03-01 08:26:00,34.0,31.0,29.89,South,189,1.0,4.0,87,0.00,,,0.07,weatherlink.com 1.10,2013-03-01 13:26:00,
2013-03-01 08:41:00,34.4,31.0,29.90,South,188,0.0,2.0,88,0.00,,,0.07,weatherlink.com 1.10,2013-03-01 13:41:00,
2013-03-01 08:56:00,35.0,31.0,29.90,South,189,1.0,3.0,85,0.00,,,0.07,weatherlink.com 1.10,2013-03-01 13:56:00,
2013-03-01 09:11:00,35.3,31.0,29.91,South,189,0.0,1.0,85,0.00,,,0.07,weatherlink.com 1.10,2013-03-01 14:11:00,
2013-03-01 09:26:00,35.8,32.0,29.90,South,189,2.0,2.0,86,0.00,,,0.07,weatherlink.com 1.10,2013-03-01 14:26:00,
2013-03-01 09:41:00,36.2,31.0,29.91,South,190,0.0,3.0,82,0.00,,,0.07,weatherlink.com 1.10,2013-03-01 14:41:00,
2013-03-01 09:56:00,36.9,32.0,29.91,SSW,194,2.0,4.0,82,0.00,,,0.00,weatherlink.com 1.10,2013-03-01 14:56:00,
2013-03-01 10:11:00,37.3,32.0,29.91,SSW,207,2.0,5.0,80,0.00,,,0.00,weatherlink.com 1.10,2013-03-01 15:11:00,
2013-03-01 10:26:00,38.3,32.0,29.90,South,180,5.0,5.0,79,0.00,,,0.00,weatherlink.com 1.10,2013-03-01 15:26:00,
2013-03-01 10:41:00,38.9,32.0,29.91,West,275,1.0,5.0,77,0.00,,,0.00,weatherlink.com 1.10,2013-03-01 15:41:00,
2013-03-01 10:56:00,39.6,33.0,29.91,WNW,299,1.0,5.0,77,0.00,,,0.00,weatherlink.com 1.10,2013-03-01 15:56:00,
2013-03-01 11:11:00,40.5,32.0,29.91,SSW,205,3.0,6.0,73,0.00,,,0.00,weatherlink.com 1.10,2013-03-01 16:11:00,
2013-03-01 11:26:00,40.7,33.0,29.91,WSW,253,2.0,6.0,73,0.00,,,0.00,weatherlink.com 1.10,2013-03-01 16:26:00,
2013-03-01 11:41:00,40.8,32.0,29.91,West,268,2.0,5.0,72,0.00,,,0.00,weatherlink.com 1.10,2013-03-01 16:41:00,
2013-03-01 11:57:00,41.9,33.0,29.91,SSE,157,1.0,7.0,71,0.00,,,0.00,weatherlink.com 1.10,2013-03-01 16:57:00,
2013-03-01 12:12:00,42.7,32.0,29.90,SSW,213,4.0,7.0,66,0.00,,,0.00,weatherlink.com 1.10,2013-03-01 17:12:00,
2013-03-01 12:27:00,42.1,33.0,29.90,NW,325,2.0,5.0,70,0.00,,,0.00,weatherlink.com 1.10,2013-03-01 17:27:00,
2013-03-01 12:42:00,44.0,32.0,29.90,NW,312,1.0,6.0,64,0.00,,,0.00,weatherlink.com 1.10,2013-03-01 17:42:00,
2013-03-01 12:57:00,43.8,31.0,29.89,SSW,200,4.0,6.0,61,0.00,,,0.00,weatherlink.com 1.10,2013-03-01 17:57:00,
2013-03-01 13:12:00,42.1,31.0,29.89,South,183,0.0,8.0,64,0.00,,,0.00,weatherlink.com 1.10,2013-03-01 18:12:00,
2013-03-01 13:42:00,42.0,30.0,29.89,SW,222,3.0,4.0,62,0.00,,,0.00,weatherlink.com 1.10,2013-03-01 18:42:00,
2013-03-01 13:57:00,41.6,28.0,29.89,WSW,244,2.0,5.0,59,0.00,,,0.00,weatherlink.com 1.10,2013-03-01 18:57:00,
2013-03-01 14:12:00,40.9,29.0,29.89,WSW,244,2.0,5.0,62,0.00,,,0.00,weatherlink.com 1.10,2013-03-01 19:12:00,
2013-03-01 14:27:00,40.6,29.0,29.89,SSW,192,4.0,5.0,63,0.00,,,0.00,weatherlink.com 1.10,2013-03-01 19:27:00,
2013-03-01 14:42:00,40.2,29.0,29.89,West,268,2.0,4.0,65,0.00,,,0.00,weatherlink.com 1.10,2013-03-01 19:42:00,
2013-03-01 14:57:00,40.0,29.0,29.89,SSW,195,4.0,5.0,65,0.00,,,0.00,weatherlink.com 1.10,2013-03-01 19:57:00,
2013-03-01 15:12:00,40.2,29.0,29.90,WNW,286,2.0,7.0,65,0.00,,,0.00,weatherlink.com 1.10,2013-03-01 20:12:00,
2013-03-01 15:27:00,40.4,29.0,29.90,West,270,0.0,5.0,65,0.00,,,0.00,weatherlink.com 1.10,2013-03-01 20:27:00,
2013-03-01 15:42:00,40.2,30.0,29.90,SW,219,2.0,5.0,67,0.00,,,0.00,weatherlink.com 1.10,2013-03-01 20:42:00,
2013-03-01 15:57:00,40.1,29.0,29.90,South,186,4.0,5.0,64,0.00,,,0.00,weatherlink.com 1.10,2013-03-01 20:57:00,
2013-03-01 16:12:00,39.8,29.0,29.91,WSW,252,1.0,2.0,65,0.00,,,0.00,weatherlink.com 1.10,2013-03-01 21:12:00,
2013-03-01 16:27:00,39.4,29.0,29.91,WSW,252,0.0,3.0,66,0.00,,,0.00,weatherlink.com 1.10,2013-03-01 21:27:00,
2013-03-01 16:42:00,39.0,27.0,29.91,West,275,5.0,7.0,63,0.00,,,0.00,weatherlink.com 1.10,2013-03-01 21:42:00,
2013-03-01 16:57:00,38.9,28.0,29.91,SW,227,2.0,4.0,64,0.00,,,0.00,weatherlink.com 1.10,2013-03-01 21:57:00,
2013-03-01 17:12:00,38.6,27.0,29.92,SSW,200,0.0,3.0,64,0.00,,,0.00,weatherlink.com 1.10,2013-03-01 22:12:00,
2013-03-01 17:27:00,38.4,28.0,29.92,SSW,203,1.0,4.0,66,0.00,,,0.00,weatherlink.com 1.10,2013-03-01 22:27:00,
2013-03-01 17:42:00,38.1,28.0,29.93,SSW,210,0.0,3.0,67,0.00,,,0.00,weatherlink.com 1.10,2013-03-01 22:42:00,
2013-03-01 17:57:00,37.9,29.0,29.93,SW,231,3.0,5.0,69,0.00,,,0.00,weatherlink.com 1.10,2013-03-01 22:57:00,
2013-03-01 18:12:00,37.7,29.0,29.94,SSW,200,0.0,3.0,71,0.00,,,0.00,weatherlink.com 1.10,2013-03-01 23:12:00,
2013-03-01 18:27:00,37.4,29.0,29.94,SSW,202,3.0,3.0,71,0.00,,,0.00,weatherlink.com 1.10,2013-03-01 23:27:00,
2013-03-01 18:42:00,37.2,29.0,29.95,SW,228,2.0,4.0,73,0.00,,,0.00,weatherlink.com 1.10,2013-03-01 23:42:00,
2013-03-01 18:57:00,37.0,29.0,29.95,South,177,0.0,3.0,74,0.00,,,0.00,weatherlink.com 1.10,2013-03-01 23:57:00,
2013-03-01 19:12:00,36.9,29.0,29.96,WNW,292,1.0,4.0,73,0.00,,,0.00,weatherlink.com 1.10,2013-03-02 00:12:00,
2013-03-01 19:27:00,36.7,29.0,29.96,SW,225,3.0,7.0,73,0.00,,,0.00,weatherlink.com 1.10,2013-03-02 00:27:00,
2013-03-01 19:42:00,36.5,29.0,29.96,SSW,196,1.0,5.0,73,0.00,,,0.00,weatherlink.com 1.10,2013-03-02 00:42:00,
2013-03-01 19:57:00,36.3,28.0,29.96,SSW,199,0.0,6.0,73,0.00,,,0.00,weatherlink.com 1.10,2013-03-02 00:57:00,
2013-03-01 20:12:00,36.1,28.0,29.97,WSW,254,1.0,5.0,73,0.00,,,0.00,weatherlink.com 1.10,2013-03-02 01:12:00,
2013-03-01 20:27:00,35.9,28.0,29.97,WSW,240,1.0,5.0,72,0.00,,,0.00,weatherlink.com 1.10,2013-03-02 01:27:00,
2013-03-01 20:42:00,35.7,27.0,29.97,SW,215,4.0,8.0,72,0.00,,,0.00,weatherlink.com 1.10,2013-03-02 01:42:00,
2013-03-01 20:57:00,35.5,27.0,29.98,SW,219,3.0,7.0,72,0.00,,,0.00,weatherlink.com 1.10,2013-03-02 01:57:00,
2013-03-01 21:12:00,35.4,27.0,29.98,WSW,253,4.0,6.0,71,0.00,,,0.00,weatherlink.com 1.10,2013-03-02 02:12:00,
2013-03-01 21:27:00,35.3,27.0,29.98,South,178,5.0,6.0,72,0.00,,,0.00,weatherlink.com 1.10,2013-03-02 02:27:00,
2013-03-01 21:42:00,35.1,27.0,29.98,South,172,3.0,7.0,71,0.00,,,0.00,weatherlink.com 1.10,2013-03-02 02:42:00,
2013-03-01 21:57:00,34.9,26.0,29.98,WSW,238,7.0,8.0,70,0.00,,,0.00,weatherlink.com 1.10,2013-03-02 02:57:00,
2013-03-01 22:12:00,34.7,26.0,29.99,West,259,4.0,8.0,70,0.00,,,0.00,weatherlink.com 1.10,2013-03-02 03:12:00,
2013-03-01 22:27:00,34.4,26.0,29.99,South,171,5.0,8.0,71,0.00,,,0.00,weatherlink.com 1.10,2013-03-02 03:27:00,
2013-03-01 22:43:00,34.2,26.0,29.99,SW,225,1.0,7.0,71,0.00,,,0.00,weatherlink.com 1.10,2013-03-02 03:43:00,
2013-03-01 22:58:00,33.9,25.0,29.99,WSW,243,3.0,10.0,70,0.00,,,0.00,weatherlink.com 1.10,2013-03-02 03:58:00,
2013-03-01 23:13:00,33.7,25.0,29.99,SW,236,3.0,7.0,70,0.00,,,0.00,weatherlink.com 1.10,2013-03-02 04:13:00,
2013-03-01 23:28:00,33.4,25.0,29.98,SW,219,1.0,5.0,70,0.00,,,0.00,weatherlink.com 1.10,2013-03-02 04:28:00,
2013-03-01 23:43:00,33.2,25.0,29.98,South,175,0.0,5.0,72,0.00,,,0.00,weatherlink.com 1.10,2013-03-02 04:43:00,
2013-03-01 23:58:00,33.0,25.0,29.99,South,188,2.0,5.0,72,0.00,,,0.00,weatherlink.com 1.10,2013-03-02 04:58:00,